sensor_id;sensor_type;location;lat;lon;timestamp;pressure;altitude;pressure_sealevel;temperature;humidity
34031;BME280;20319;28.466;-16.274;2023-07-22T00:02:13;95911.63;;;19.21;100.00
34031;BME280;20319;28.466;-16.274;2023-07-22T00:04:38;95785.13;;;18.57;100.00
34031;BME280;20319;28.466;-16.274;2023-07-22T00:07:04;95767.06;;;18.53;100.00
34031;BME280;20319;28.466;-16.274;2023-07-22T00:09:32;95807.63;;;18.71;100.00
34031;BME280;20319;28.466;-16.274;2023-07-22T00:11:59;95816.25;;;18.87;100.00
34031;BME280;20319;28.466;-16.274;2023-07-22T00:14:25;95887.31;;;19.30;100.00
34031;BME280;20319;28.466;-16.274;2023-07-22T00:16:51;95751.66;;;18.48;100.00
34031;BME280;20319;28.466;-16.274;2023-07-22T00:19:16;95866.97;;;19.13;100.00
34031;BME280;20319;28.466;-16.274;2023-07-22T00:21:42;95895.63;;;19.47;100.00
34031;BME280;20319;28.466;-16.274;2023-07-22T00:24:08;95864.19;;;19.32;100.00
34031;BME280;20319;28.466;-16.274;2023-07-22T00:26:36;95784.91;;;18.67;100.00
34031;BME280;20319;28.466;-16.274;2023-07-22T00:29:01;95897.94;;;19.40;100.00
34031;BME280;20319;28.466;-16.274;2023-07-22T00:31:28;95834.72;;;18.98;100.00
34031;BME280;20319;28.466;-16.274;2023-07-22T00:33:54;95753.59;;;18.48;100.00
34031;BME280;20319;28.466;-16.274;2023-07-22T00:36:19;95732.06;;;18.38;100.00
34031;BME280;20319;28.466;-16.274;2023-07-22T00:38:45;95679.34;;;18.03;100.00
34031;BME280;20319;28.466;-16.274;2023-07-22T00:41:11;95757.38;;;18.60;100.00
34031;BME280;20319;28.466;-16.274;2023-07-22T00:43:37;95888.28;;;19.47;100.00
34031;BME280;20319;28.466;-16.274;2023-07-22T00:46:04;95854.59;;;19.35;100.00
34031;BME280;20319;28.466;-16.274;2023-07-22T00:48:30;95891.81;;;19.48;100.00
34031;BME280;20319;28.466;-16.274;2023-07-22T00:50:56;95760.59;;;18.76;100.00
34031;BME280;20319;28.466;-16.274;2023-07-22T00:53:22;95704.56;;;18.44;100.00
34031;BME280;20319;28.466;-16.274;2023-07-22T00:55:47;95828.78;;;19.10;100.00
34031;BME280;20319;28.466;-16.274;2023-07-22T00:58:13;95782.78;;;18.64;100.00
34031;BME280;20319;28.466;-16.274;2023-07-22T01:00:39;95850.28;;;19.34;100.00
34031;BME280;20319;28.466;-16.274;2023-07-22T01:03:04;95851.22;;;19.29;100.00
34031;BME280;20319;28.466;-16.274;2023-07-22T01:05:32;95741.31;;;18.64;100.00
34031;BME280;20319;28.466;-16.274;2023-07-22T01:07:58;95847.16;;;19.27;100.00
34031;BME280;20319;28.466;-16.274;2023-07-22T01:10:24;95727.03;;;18.58;100.00
34031;BME280;20319;28.466;-16.274;2023-07-22T01:12:50;95853.63;;;19.31;100.00
34031;BME280;20319;28.466;-16.274;2023-07-22T01:15:15;95694.28;;;18.28;100.00
34031;BME280;20319;28.466;-16.274;2023-07-22T01:17:41;95717.63;;;18.42;100.00
34031;BME280;20319;28.466;-16.274;2023-07-22T01:20:07;95712.59;;;18.49;100.00
34031;BME280;20319;28.466;-16.274;2023-07-22T01:22:36;95848.19;;;19.31;100.00
34031;BME280;20319;28.466;-16.274;2023-07-22T01:25:02;95823.94;;;19.21;100.00
34031;BME280;20319;28.466;-16.274;2023-07-22T01:27:29;95714.38;;;18.67;100.00
34031;BME280;20319;28.466;-16.274;2023-07-22T01:29:55;95798.81;;;19.15;100.00
34031;BME280;20319;28.466;-16.274;2023-07-22T01:32:20;95796.97;;;19.24;100.00
34031;BME280;20319;28.466;-16.274;2023-07-22T01:34:46;95841.69;;;19.54;100.00
34031;BME280;20319;28.466;-16.274;2023-07-22T01:37:12;95691.47;;;18.60;100.00
34031;BME280;20319;28.466;-16.274;2023-07-22T01:39:37;95688.09;;;18.54;100.00
34031;BME280;20319;28.466;-16.274;2023-07-22T01:42:03;95789.88;;;19.14;100.00
34031;BME280;20319;28.466;-16.274;2023-07-22T01:44:29;95727.81;;;18.72;100.00
34031;BME280;20319;28.466;-16.274;2023-07-22T01:46:55;95833.88;;;19.25;100.00
34031;BME280;20319;28.466;-16.274;2023-07-22T01:49:21;95839.78;;;19.41;100.00
34031;BME280;20319;28.466;-16.274;2023-07-22T01:51:47;95795.31;;;19.01;100.00
34031;BME280;20319;28.466;-16.274;2023-07-22T01:54:12;95798.94;;;18.96;100.00
34031;BME280;20319;28.466;-16.274;2023-07-22T01:56:38;95839.03;;;19.13;100.00
34031;BME280;20319;28.466;-16.274;2023-07-22T01:59:05;95819.84;;;19.09;100.00
34031;BME280;20319;28.466;-16.274;2023-07-22T02:01:31;95787.97;;;19.01;100.00
34031;BME280;20319;28.466;-16.274;2023-07-22T02:03:57;95756.13;;;18.93;100.00
34031;BME280;20319;28.466;-16.274;2023-07-22T02:06:23;95797.59;;;19.07;100.00
34031;BME280;20319;28.466;-16.274;2023-07-22T02:08:49;95812.78;;;19.22;100.00
34031;BME280;20319;28.466;-16.274;2023-07-22T02:11:16;95824.44;;;19.36;100.00
34031;BME280;20319;28.466;-16.274;2023-07-22T02:13:43;95772.69;;;19.05;100.00
34031;BME280;20319;28.466;-16.274;2023-07-22T02:16:08;95735.66;;;18.87;100.00
34031;BME280;20319;28.466;-16.274;2023-07-22T02:18:37;95773.50;;;19.06;100.00
34031;BME280;20319;28.466;-16.274;2023-07-22T02:21:03;95661.19;;;18.44;100.00
34031;BME280;20319;28.466;-16.274;2023-07-22T02:23:28;95739.00;;;19.06;100.00
34031;BME280;20319;28.466;-16.274;2023-07-22T02:25:54;95629.31;;;18.36;100.00
34031;BME280;20319;28.466;-16.274;2023-07-22T02:28:21;95693.69;;;18.58;100.00
34031;BME280;20319;28.466;-16.274;2023-07-22T02:30:49;95777.38;;;19.13;100.00
34031;BME280;20319;28.466;-16.274;2023-07-22T02:33:15;95789.66;;;19.25;100.00
34031;BME280;20319;28.466;-16.274;2023-07-22T02:35:41;95666.59;;;18.44;100.00
34031;BME280;20319;28.466;-16.274;2023-07-22T02:38:07;95756.78;;;19.12;100.00
34031;BME280;20319;28.466;-16.274;2023-07-22T02:40:39;95610.38;;;18.09;100.00
34031;BME280;20319;28.466;-16.274;2023-07-22T02:43:05;95778.88;;;19.33;100.00
34031;BME280;20319;28.466;-16.274;2023-07-22T02:45:33;95776.06;;;19.25;100.00
34031;BME280;20319;28.466;-16.274;2023-07-22T02:47:58;95728.13;;;18.84;100.00
34031;BME280;20319;28.466;-16.274;2023-07-22T02:50:24;95516.03;;;17.62;100.00
34031;BME280;20319;28.466;-16.274;2023-07-22T02:52:51;95752.16;;;19.13;100.00
34031;BME280;20319;28.466;-16.274;2023-07-22T02:55:17;95770.44;;;19.21;100.00
34031;BME280;20319;28.466;-16.274;2023-07-22T02:57:47;95564.63;;;18.08;100.00
34031;BME280;20319;28.466;-16.274;2023-07-22T03:00:15;95779.16;;;19.45;100.00
34031;BME280;20319;28.466;-16.274;2023-07-22T03:02:50;95779.16;;;19.45;100.00
34031;BME280;20319;28.466;-16.274;2023-07-22T03:05:16;95730.25;;;19.09;100.00
34031;BME280;20319;28.466;-16.274;2023-07-22T03:07:42;95754.63;;;19.37;100.00
34031;BME280;20319;28.466;-16.274;2023-07-22T03:10:08;95786.38;;;19.50;100.00
34031;BME280;20319;28.466;-16.274;2023-07-22T03:12:35;95764.47;;;19.33;100.00
34031;BME280;20319;28.466;-16.274;2023-07-22T03:15:01;95672.78;;;18.72;100.00
34031;BME280;20319;28.466;-16.274;2023-07-22T03:17:26;95707.47;;;18.97;100.00
34031;BME280;20319;28.466;-16.274;2023-07-22T03:19:52;95586.50;;;18.11;100.00
34031;BME280;20319;28.466;-16.274;2023-07-22T03:22:18;95729.59;;;18.90;100.00
34031;BME280;20319;28.466;-16.274;2023-07-22T03:24:45;95755.91;;;19.03;100.00
34031;BME280;20319;28.466;-16.274;2023-07-22T03:27:11;95717.59;;;18.69;100.00
34031;BME280;20319;28.466;-16.274;2023-07-22T03:29:38;95627.25;;;18.06;100.00
34031;BME280;20319;28.466;-16.274;2023-07-22T03:32:04;95780.81;;;19.05;100.00
34031;BME280;20319;28.466;-16.274;2023-07-22T03:34:30;95562.44;;;17.69;100.00
34031;BME280;20319;28.466;-16.274;2023-07-22T03:36:57;95742.47;;;18.85;100.00
34031;BME280;20319;28.466;-16.274;2023-07-22T03:39:22;95730.84;;;18.71;100.00
34031;BME280;20319;28.466;-16.274;2023-07-22T03:41:48;95618.41;;;18.14;100.00
34031;BME280;20319;28.466;-16.274;2023-07-22T03:44:14;95729.03;;;18.80;100.00
34031;BME280;20319;28.466;-16.274;2023-07-22T03:46:39;95560.06;;;17.81;100.00
34031;BME280;20319;28.466;-16.274;2023-07-22T03:49:05;95558.66;;;17.70;100.00
34031;BME280;20319;28.466;-16.274;2023-07-22T03:51:31;95456.03;;;17.01;100.00
34031;BME280;20319;28.466;-16.274;2023-07-22T03:53:57;95739.69;;;18.76;100.00
34031;BME280;20319;28.466;-16.274;2023-07-22T03:56:22;95741.78;;;18.79;100.00
34031;BME280;20319;28.466;-16.274;2023-07-22T03:58:50;95768.22;;;18.87;100.00
34031;BME280;20319;28.466;-16.274;2023-07-22T04:01:15;95699.16;;;18.44;100.00
34031;BME280;20319;28.466;-16.274;2023-07-22T04:03:41;95779.69;;;18.84;100.00
34031;BME280;20319;28.466;-16.274;2023-07-22T04:06:07;95553.94;;;17.48;100.00
34031;BME280;20319;28.466;-16.274;2023-07-22T04:08:32;95607.59;;;17.87;100.00
34031;BME280;20319;28.466;-16.274;2023-07-22T04:10:58;95372.81;;;16.39;100.00
34031;BME280;20319;28.466;-16.274;2023-07-22T04:13:25;95745.78;;;18.82;100.00
34031;BME280;20319;28.466;-16.274;2023-07-22T04:15:51;95626.84;;;18.13;100.00
34031;BME280;20319;28.466;-16.274;2023-07-22T04:18:18;95761.34;;;19.03;100.00
34031;BME280;20319;28.466;-16.274;2023-07-22T04:20:44;95729.22;;;18.83;100.00
34031;BME280;20319;28.466;-16.274;2023-07-22T04:23:10;95729.28;;;18.92;100.00
34031;BME280;20319;28.466;-16.274;2023-07-22T04:25:43;95624.63;;;18.28;100.00
34031;BME280;20319;28.466;-16.274;2023-07-22T04:28:10;95684.34;;;18.64;100.00
34031;BME280;20319;28.466;-16.274;2023-07-22T04:30:36;95733.34;;;18.81;100.00
34031;BME280;20319;28.466;-16.274;2023-07-22T04:33:03;95613.00;;;18.14;100.00
34031;BME280;20319;28.466;-16.274;2023-07-22T04:35:36;95585.59;;;18.02;100.00
34031;BME280;20319;28.466;-16.274;2023-07-22T04:38:02;95607.06;;;18.12;100.00
34031;BME280;20319;28.466;-16.274;2023-07-22T04:40:28;95748.81;;;18.94;100.00
34031;BME280;20319;28.466;-16.274;2023-07-22T04:42:56;95589.53;;;17.96;100.00
34031;BME280;20319;28.466;-16.274;2023-07-22T04:45:22;95755.50;;;18.96;100.00
34031;BME280;20319;28.466;-16.274;2023-07-22T04:47:50;95701.41;;;18.64;100.00
34031;BME280;20319;28.466;-16.274;2023-07-22T04:50:16;95725.41;;;18.84;100.00
34031;BME280;20319;28.466;-16.274;2023-07-22T04:52:44;95577.28;;;17.85;100.00
34031;BME280;20319;28.466;-16.274;2023-07-22T04:55:10;95628.66;;;18.17;100.00
34031;BME280;20319;28.466;-16.274;2023-07-22T04:57:37;95772.34;;;19.21;100.00
34031;BME280;20319;28.466;-16.274;2023-07-22T05:00:04;95567.38;;;17.94;100.00
34031;BME280;20319;28.466;-16.274;2023-07-22T05:02:30;95722.94;;;18.96;100.00
34031;BME280;20319;28.466;-16.274;2023-07-22T05:04:56;95634.03;;;18.31;100.00
34031;BME280;20319;28.466;-16.274;2023-07-22T05:07:22;95771.59;;;19.06;100.00
34031;BME280;20319;28.466;-16.274;2023-07-22T05:09:48;95595.16;;;18.00;100.00
34031;BME280;20319;28.466;-16.274;2023-07-22T05:12:14;95704.53;;;18.71;100.00
34031;BME280;20319;28.466;-16.274;2023-07-22T05:14:40;95731.19;;;18.91;100.00
34031;BME280;20319;28.466;-16.274;2023-07-22T05:17:06;95702.63;;;18.72;100.00
34031;BME280;20319;28.466;-16.274;2023-07-22T05:19:31;95604.56;;;18.02;100.00
34031;BME280;20319;28.466;-16.274;2023-07-22T05:21:57;95775.16;;;19.15;100.00
34031;BME280;20319;28.466;-16.274;2023-07-22T05:24:22;95745.28;;;18.93;100.00
34031;BME280;20319;28.466;-16.274;2023-07-22T05:26:48;95709.34;;;18.74;100.00
34031;BME280;20319;28.466;-16.274;2023-07-22T05:29:14;95625.63;;;18.19;100.00
34031;BME280;20319;28.466;-16.274;2023-07-22T05:31:40;95532.34;;;17.70;100.00
34031;BME280;20319;28.466;-16.274;2023-07-22T05:34:05;95621.09;;;18.28;100.00
34031;BME280;20319;28.466;-16.274;2023-07-22T05:36:31;95609.38;;;18.19;100.00
34031;BME280;20319;28.466;-16.274;2023-07-22T05:38:57;95730.84;;;18.84;100.00
34031;BME280;20319;28.466;-16.274;2023-07-22T05:41:23;95767.75;;;19.07;100.00
34031;BME280;20319;28.466;-16.274;2023-07-22T05:43:48;95737.25;;;18.88;100.00
34031;BME280;20319;28.466;-16.274;2023-07-22T05:46:14;95745.66;;;19.00;100.00
34031;BME280;20319;28.466;-16.274;2023-07-22T05:48:39;95758.63;;;19.03;100.00
34031;BME280;20319;28.466;-16.274;2023-07-22T05:51:05;95783.31;;;19.15;100.00
34031;BME280;20319;28.466;-16.274;2023-07-22T05:53:32;95421.88;;;16.91;100.00
34031;BME280;20319;28.466;-16.274;2023-07-22T05:55:58;95727.91;;;18.81;100.00
34031;BME280;20319;28.466;-16.274;2023-07-22T05:58:24;95719.31;;;18.65;100.00
34031;BME280;20319;28.466;-16.274;2023-07-22T06:00:49;95661.88;;;18.36;100.00
34031;BME280;20319;28.466;-16.274;2023-07-22T06:03:17;95776.41;;;19.09;100.00
34031;BME280;20319;28.466;-16.274;2023-07-22T06:05:43;95689.72;;;18.42;100.00
34031;BME280;20319;28.466;-16.274;2023-07-22T06:08:09;95690.41;;;18.34;100.00
34031;BME280;20319;28.466;-16.274;2023-07-22T06:10:34;95766.41;;;18.83;100.00
34031;BME280;20319;28.466;-16.274;2023-07-22T06:13:03;95621.94;;;18.01;100.00
34031;BME280;20319;28.466;-16.274;2023-07-22T06:15:29;95802.44;;;19.10;100.00
34031;BME280;20319;28.466;-16.274;2023-07-22T06:17:54;95588.16;;;17.72;100.00
34031;BME280;20319;28.466;-16.274;2023-07-22T06:20:20;95570.19;;;17.62;100.00
34031;BME280;20319;28.466;-16.274;2023-07-22T06:22:46;95625.16;;;18.03;100.00
34031;BME280;20319;28.466;-16.274;2023-07-22T06:25:11;95744.50;;;18.79;100.00
34031;BME280;20319;28.466;-16.274;2023-07-22T06:27:37;95665.06;;;18.25;100.00
34031;BME280;20319;28.466;-16.274;2023-07-22T06:30:03;95575.38;;;17.72;100.00
34031;BME280;20319;28.466;-16.274;2023-07-22T06:32:30;95599.47;;;17.87;100.00
34031;BME280;20319;28.466;-16.274;2023-07-22T06:34:58;95748.34;;;18.78;100.00
34031;BME280;20319;28.466;-16.274;2023-07-22T06:37:24;95640.69;;;17.98;100.00
34031;BME280;20319;28.466;-16.274;2023-07-22T06:39:50;95632.28;;;17.99;100.00
34031;BME280;20319;28.466;-16.274;2023-07-22T06:42:16;95778.44;;;18.90;100.00
34031;BME280;20319;28.466;-16.274;2023-07-22T06:44:42;95728.88;;;18.49;100.00
34031;BME280;20319;28.466;-16.274;2023-07-22T06:47:08;95739.28;;;18.69;100.00
34031;BME280;20319;28.466;-16.274;2023-07-22T06:49:34;95632.69;;;18.06;100.00
34031;BME280;20319;28.466;-16.274;2023-07-22T06:51:59;95688.69;;;18.51;100.00
34031;BME280;20319;28.466;-16.274;2023-07-22T06:54:26;95675.22;;;18.33;100.00
34031;BME280;20319;28.466;-16.274;2023-07-22T06:56:52;95628.78;;;17.99;100.00
34031;BME280;20319;28.466;-16.274;2023-07-22T06:59:18;95677.16;;;18.32;100.00
34031;BME280;20319;28.466;-16.274;2023-07-22T07:01:43;95656.47;;;18.23;100.00
34031;BME280;20319;28.466;-16.274;2023-07-22T07:04:09;95804.78;;;19.03;100.00
34031;BME280;20319;28.466;-16.274;2023-07-22T07:06:35;95646.13;;;18.11;100.00
34031;BME280;20319;28.466;-16.274;2023-07-22T07:09:03;95822.44;;;19.01;100.00
34031;BME280;20319;28.466;-16.274;2023-07-22T07:11:29;95808.31;;;18.90;100.00
34031;BME280;20319;28.466;-16.274;2023-07-22T07:13:55;95582.53;;;17.68;100.00
34031;BME280;20319;28.466;-16.274;2023-07-22T07:16:23;95703.53;;;18.27;100.00
34031;BME280;20319;28.466;-16.274;2023-07-22T07:18:49;95859.75;;;19.23;100.00
34031;BME280;20319;28.466;-16.274;2023-07-22T07:21:16;95810.22;;;18.90;100.00
34031;BME280;20319;28.466;-16.274;2023-07-22T07:23:42;95819.06;;;18.95;100.00
34031;BME280;20319;28.466;-16.274;2023-07-22T07:26:07;95790.31;;;18.67;100.00
34031;BME280;20319;28.466;-16.274;2023-07-22T07:28:33;95805.50;;;18.82;100.00
34031;BME280;20319;28.466;-16.274;2023-07-22T07:30:59;95800.78;;;18.60;100.00
34031;BME280;20319;28.466;-16.274;2023-07-22T07:33:25;95694.00;;;18.02;100.00
34031;BME280;20319;28.466;-16.274;2023-07-22T07:35:51;95856.66;;;19.02;100.00
34031;BME280;20319;28.466;-16.274;2023-07-22T07:38:16;95714.19;;;18.10;100.00
34031;BME280;20319;28.466;-16.274;2023-07-22T07:40:42;95848.41;;;18.93;100.00
34031;BME280;20319;28.466;-16.274;2023-07-22T07:43:08;95781.69;;;18.52;100.00
34031;BME280;20319;28.466;-16.274;2023-07-22T07:45:38;95854.56;;;18.99;100.00
34031;BME280;20319;28.466;-16.274;2023-07-22T07:48:04;95633.69;;;17.69;100.00
34031;BME280;20319;28.466;-16.274;2023-07-22T07:50:30;95742.31;;;18.41;100.00
34031;BME280;20319;28.466;-16.274;2023-07-22T07:52:56;95854.09;;;19.05;100.00
34031;BME280;20319;28.466;-16.274;2023-07-22T07:55:21;95847.75;;;19.24;100.00
34031;BME280;20319;28.466;-16.274;2023-07-22T07:57:47;95804.38;;;19.10;100.00
34031;BME280;20319;28.466;-16.274;2023-07-22T08:00:13;95849.56;;;19.42;100.00
34031;BME280;20319;28.466;-16.274;2023-07-22T08:02:39;95675.41;;;18.36;100.00
34031;BME280;20319;28.466;-16.274;2023-07-22T08:05:05;95724.03;;;18.73;100.00
34031;BME280;20319;28.466;-16.274;2023-07-22T08:07:31;95726.19;;;18.85;100.00
34031;BME280;20319;28.466;-16.274;2023-07-22T08:09:56;95818.84;;;19.55;100.00
34031;BME280;20319;28.466;-16.274;2023-07-22T08:12:23;95886.44;;;19.92;100.00
34031;BME280;20319;28.466;-16.274;2023-07-22T08:14:49;95794.75;;;19.40;100.00
34031;BME280;20319;28.466;-16.274;2023-07-22T08:17:14;95703.31;;;18.77;100.00
34031;BME280;20319;28.466;-16.274;2023-07-22T08:19:40;95842.25;;;19.64;100.00
34031;BME280;20319;28.466;-16.274;2023-07-22T08:22:06;95881.38;;;19.99;100.00
34031;BME280;20319;28.466;-16.274;2023-07-22T08:24:32;95787.47;;;19.49;100.00
34031;BME280;20319;28.466;-16.274;2023-07-22T08:26:58;95742.59;;;19.29;100.00
34031;BME280;20319;28.466;-16.274;2023-07-22T08:29:24;95819.09;;;19.89;100.00
34031;BME280;20319;28.466;-16.274;2023-07-22T08:31:50;95843.66;;;20.06;100.00
34031;BME280;20319;28.466;-16.274;2023-07-22T08:34:15;95820.56;;;19.95;100.00
34031;BME280;20319;28.466;-16.274;2023-07-22T08:36:41;95725.19;;;19.52;100.00
34031;BME280;20319;28.466;-16.274;2023-07-22T08:39:07;95841.50;;;20.38;100.00
34031;BME280;20319;28.466;-16.274;2023-07-22T08:41:33;95762.63;;;19.86;98.44
34031;BME280;20319;28.466;-16.274;2023-07-22T08:43:59;95875.56;;;20.67;96.71
34031;BME280;20319;28.466;-16.274;2023-07-22T08:46:28;95801.41;;;20.22;94.51
34031;BME280;20319;28.466;-16.274;2023-07-22T08:48:56;95886.06;;;20.90;93.91
34031;BME280;20319;28.466;-16.274;2023-07-22T08:51:24;95859.72;;;20.69;93.50
34031;BME280;20319;28.466;-16.274;2023-07-22T08:53:51;95786.41;;;20.33;93.71
34031;BME280;20319;28.466;-16.274;2023-07-22T08:56:17;95715.94;;;19.84;93.72
34031;BME280;20319;28.466;-16.274;2023-07-22T08:58:43;95682.41;;;19.58;94.20
34031;BME280;20319;28.466;-16.274;2023-07-22T09:01:10;95851.97;;;20.53;94.86
34031;BME280;20319;28.466;-16.274;2023-07-22T09:03:37;95724.22;;;19.79;96.20
34031;BME280;20319;28.466;-16.274;2023-07-22T09:06:04;95804.94;;;20.22;98.42
34031;BME280;20319;28.466;-16.274;2023-07-22T09:08:30;95697.81;;;19.49;100.00
34031;BME280;20319;28.466;-16.274;2023-07-22T09:10:56;95651.63;;;19.27;100.00
34031;BME280;20319;28.466;-16.274;2023-07-22T09:13:23;95868.44;;;20.48;100.00
34031;BME280;20319;28.466;-16.274;2023-07-22T09:15:50;95869.69;;;20.42;100.00
34031;BME280;20319;28.466;-16.274;2023-07-22T09:18:16;95836.09;;;20.16;100.00
34031;BME280;20319;28.466;-16.274;2023-07-22T09:20:42;95718.31;;;19.33;100.00
34031;BME280;20319;28.466;-16.274;2023-07-22T09:23:08;95732.78;;;19.64;100.00
34031;BME280;20319;28.466;-16.274;2023-07-22T09:25:33;95797.44;;;20.06;100.00
34031;BME280;20319;28.466;-16.274;2023-07-22T09:27:59;95862.91;;;20.62;100.00
34031;BME280;20319;28.466;-16.274;2023-07-22T09:30:33;95848.16;;;20.63;98.91
34031;BME280;20319;28.466;-16.274;2023-07-22T09:33:01;95760.06;;;20.11;97.09
34031;BME280;20319;28.466;-16.274;2023-07-22T09:35:44;95870.56;;;20.91;95.95
34031;BME280;20319;28.466;-16.274;2023-07-22T09:38:10;95768.00;;;20.30;94.79
34031;BME280;20319;28.466;-16.274;2023-07-22T09:40:40;95830.94;;;20.68;93.02
34031;BME280;20319;28.466;-16.274;2023-07-22T09:43:08;95777.63;;;20.36;91.64
34031;BME280;20319;28.466;-16.274;2023-07-22T09:45:34;95780.97;;;20.33;91.30
34031;BME280;20319;28.466;-16.274;2023-07-22T09:48:00;95926.81;;;21.34;92.43
34031;BME280;20319;28.466;-16.274;2023-07-22T09:50:26;95736.06;;;20.44;93.33
34031;BME280;20319;28.466;-16.274;2023-07-22T09:52:54;95842.75;;;21.11;93.56
34031;BME280;20319;28.466;-16.274;2023-07-22T09:55:22;95743.44;;;20.52;93.49
34031;BME280;20319;28.466;-16.274;2023-07-22T09:57:56;95922.34;;;21.47;93.41
34031;BME280;20319;28.466;-16.274;2023-07-22T10:00:23;95910.78;;;21.41;93.16
34031;BME280;20319;28.466;-16.274;2023-07-22T10:02:51;95934.84;;;21.39;91.90
34031;BME280;20319;28.466;-16.274;2023-07-22T10:05:19;95808.03;;;20.69;90.58
34031;BME280;20319;28.466;-16.274;2023-07-22T10:07:53;95902.97;;;21.48;89.06
34031;BME280;20319;28.466;-16.274;2023-07-22T10:10:21;95864.78;;;21.31;88.12
34031;BME280;20319;28.466;-16.274;2023-07-22T10:12:48;95739.50;;;20.58;87.36
34031;BME280;20319;28.466;-16.274;2023-07-22T10:15:15;95675.03;;;20.19;85.94
34031;BME280;20319;28.466;-16.274;2023-07-22T10:17:42;95864.16;;;21.43;85.33
34031;BME280;20319;28.466;-16.274;2023-07-22T10:20:09;95910.41;;;21.82;83.51
34031;BME280;20319;28.466;-16.274;2023-07-22T10:22:45;95858.72;;;21.51;83.28
34031;BME280;20319;28.466;-16.274;2023-07-22T10:25:20;95849.41;;;21.52;82.74
34031;BME280;20319;28.466;-16.274;2023-07-22T10:27:51;95770.84;;;21.12;82.74
34031;BME280;20319;28.466;-16.274;2023-07-22T10:30:18;95905.28;;;22.06;83.34
34031;BME280;20319;28.466;-16.274;2023-07-22T10:32:48;95885.69;;;21.95;82.51
34031;BME280;20319;28.466;-16.274;2023-07-22T10:35:22;95877.19;;;21.97;82.53
34031;BME280;20319;28.466;-16.274;2023-07-22T10:37:48;95890.34;;;22.12;83.43
34031;BME280;20319;28.466;-16.274;2023-07-22T10:42:53;95926.94;;;21.94;84.42
34031;BME280;20319;28.466;-16.274;2023-07-22T10:45:26;95906.09;;;21.89;85.41
34031;BME280;20319;28.466;-16.274;2023-07-22T10:50:50;95912.97;;;21.95;84.08
34031;BME280;20319;28.466;-16.274;2023-07-22T11:01:32;95901.88;;;22.52;79.23
34031;BME280;20319;28.466;-16.274;2023-07-22T11:12:01;95926.72;;;22.67;79.27
34031;BME280;20319;28.466;-16.274;2023-07-22T11:14:30;95898.97;;;22.48;80.14
34031;BME280;20319;28.466;-16.274;2023-07-22T11:16:57;95915.50;;;22.43;80.66
34031;BME280;20319;28.466;-16.274;2023-07-22T11:19:24;95873.19;;;22.12;80.73
34031;BME280;20319;28.466;-16.274;2023-07-22T11:21:52;95721.81;;;21.20;80.61
34031;BME280;20319;28.466;-16.274;2023-07-22T11:24:19;95869.31;;;22.30;80.05
34031;BME280;20319;28.466;-16.274;2023-07-22T11:26:46;95788.66;;;21.86;79.48
34031;BME280;20319;28.466;-16.274;2023-07-22T11:29:13;95872.16;;;22.59;78.26
34031;BME280;20319;28.466;-16.274;2023-07-22T11:31:41;95841.53;;;22.36;77.61
34031;BME280;20319;28.466;-16.274;2023-07-22T11:34:12;95896.38;;;22.69;76.68
34031;BME280;20319;28.466;-16.274;2023-07-22T11:36:38;95868.63;;;22.50;76.07
34031;BME280;20319;28.466;-16.274;2023-07-22T11:39:06;95900.50;;;22.83;75.85
34031;BME280;20319;28.466;-16.274;2023-07-22T11:41:32;95896.78;;;22.88;76.13
34031;BME280;20319;28.466;-16.274;2023-07-22T11:44:02;95893.34;;;23.08;76.15
34031;BME280;20319;28.466;-16.274;2023-07-22T11:46:34;95896.19;;;23.28;75.31
34031;BME280;20319;28.466;-16.274;2023-07-22T11:49:00;95921.28;;;23.51;74.64
34031;BME280;20319;28.466;-16.274;2023-07-22T11:51:26;95799.38;;;22.71;74.21
34031;BME280;20319;28.466;-16.274;2023-07-22T11:53:54;95880.41;;;23.55;74.02
34031;BME280;20319;28.466;-16.274;2023-07-22T11:56:27;95910.31;;;23.80;73.71
34031;BME280;20319;28.466;-16.274;2023-07-22T11:58:57;95877.97;;;23.62;73.97
34031;BME280;20319;28.466;-16.274;2023-07-22T12:01:23;95861.03;;;23.68;74.19
34031;BME280;20319;28.466;-16.274;2023-07-22T12:03:55;95876.34;;;23.81;73.74
34031;BME280;20319;28.466;-16.274;2023-07-22T12:06:25;95903.50;;;23.86;73.64
34031;BME280;20319;28.466;-16.274;2023-07-22T12:08:51;95884.25;;;23.83;74.47
34031;BME280;20319;28.466;-16.274;2023-07-22T12:11:24;95912.69;;;24.11;74.74
34031;BME280;20319;28.466;-16.274;2023-07-22T12:14:12;95868.97;;;24.02;73.30
34031;BME280;20319;28.466;-16.274;2023-07-22T12:16:39;95620.09;;;22.55;72.00
34031;BME280;20319;28.466;-16.274;2023-07-22T12:19:06;95721.50;;;23.15;71.64
34031;BME280;20319;28.466;-16.274;2023-07-22T12:21:32;95825.81;;;23.87;70.77
34031;BME280;20319;28.466;-16.274;2023-07-22T12:23:58;95888.66;;;24.16;71.23
34031;BME280;20319;28.466;-16.274;2023-07-22T12:26:24;95890.91;;;24.35;70.48
34031;BME280;20319;28.466;-16.274;2023-07-22T12:28:50;95776.25;;;23.68;70.76
34031;BME280;20319;28.466;-16.274;2023-07-22T12:31:15;95865.47;;;24.34;70.48
34031;BME280;20319;28.466;-16.274;2023-07-22T12:33:42;95780.19;;;23.79;70.14
34031;BME280;20319;28.466;-16.274;2023-07-22T12:36:07;95834.34;;;24.39;69.94
34031;BME280;20319;28.466;-16.274;2023-07-22T12:38:33;95884.25;;;24.89;69.60
34031;BME280;20319;28.466;-16.274;2023-07-22T12:41:00;95763.97;;;24.51;68.39
34031;BME280;20319;28.466;-16.274;2023-07-22T12:43:26;95775.72;;;24.64;67.36
34031;BME280;20319;28.466;-16.274;2023-07-22T12:45:51;95749.69;;;24.34;67.31
34031;BME280;20319;28.466;-16.274;2023-07-22T12:48:17;95870.31;;;25.06;68.10
34031;BME280;20319;28.466;-16.274;2023-07-22T12:50:43;95731.66;;;24.21;68.28
34031;BME280;20319;28.466;-16.274;2023-07-22T12:53:09;95742.75;;;24.36;68.10